createdAt,value
2023-01-17T00:02:31.088Z,5.97
2023-01-17T00:05:58.156Z,5.32
2023-01-17T00:09:18.530Z,6.00
2023-01-17T00:12:22.288Z,5.90
2023-01-17T00:15:25.978Z,6.03
2023-01-17T00:18:28.875Z,5.93
2023-01-17T00:21:50.698Z,5.60
2023-01-17T00:25:11.156Z,5.15
2023-01-17T00:28:13.161Z,5.38
2023-01-17T00:31:16.614Z,5.07
2023-01-17T00:34:18.341Z,5.20
2023-01-17T00:37:21.397Z,5.15
2023-01-17T00:40:23.174Z,5.10
2023-01-17T00:43:43.519Z,5.35
2023-01-17T00:47:03.763Z,5.30
2023-01-17T00:50:24.158Z,5.03
2023-01-17T00:53:45.719Z,5.00
2023-01-17T00:57:06.039Z,4.95
2023-01-17T01:00:27.734Z,5.05
2023-01-17T01:03:48.273Z,5.10
2023-01-17T01:07:08.505Z,4.63
2023-01-17T01:10:30.182Z,5.13
2023-01-17T01:13:51.075Z,5.32
2023-01-17T01:17:11.316Z,5.15
2023-01-17T01:20:31.541Z,4.53
2023-01-17T01:23:51.970Z,4.97
2023-01-17T01:27:13.841Z,5.00
2023-01-17T01:30:34.763Z,4.47
2023-01-17T01:33:37.711Z,4.60
2023-01-17T01:36:40.569Z,4.57
2023-01-17T01:39:43.425Z,4.90
2023-01-17T01:42:52.035Z,4.35
2023-01-17T01:45:59.218Z,4.20
2023-01-17T01:49:06.757Z,4.05
2023-01-17T01:52:12.039Z,4.78
2023-01-17T01:55:19.438Z,4.47
2023-01-17T01:58:28.093Z,4.75
2023-01-17T02:01:32.506Z,4.78
2023-01-17T02:04:36.127Z,4.40
2023-01-17T02:07:44.494Z,4.30
2023-01-17T02:10:47.677Z,4.38
2023-01-17T02:13:51.987Z,4.32
2023-01-17T02:17:07.421Z,4.22
2023-01-17T02:20:48.970Z,4.07
2023-01-17T02:24:40.730Z,4.40
2023-01-17T02:27:59.562Z,4.20
2023-01-17T02:31:10.703Z,4.28
2023-01-17T02:34:21.609Z,4.15
2023-01-17T02:37:29.857Z,3.75
2023-01-17T02:40:39.682Z,4.28
2023-01-17T02:43:42.809Z,4.10
2023-01-17T02:46:48.729Z,3.83
2023-01-17T02:49:53.671Z,3.72
2023-01-17T02:53:12.980Z,4.00
2023-01-17T02:56:28.261Z,3.85
2023-01-17T02:59:39.625Z,4.22
2023-01-17T03:02:53.029Z,4.15
2023-01-17T03:06:01.731Z,4.20
2023-01-17T03:09:05.715Z,4.15
2023-01-17T03:12:10.931Z,3.72
2023-01-17T03:15:16.073Z,4.00
2023-01-17T03:18:20.506Z,3.75
2023-01-17T03:21:24.610Z,3.78
2023-01-17T03:24:27.507Z,4.00
2023-01-17T03:27:30.803Z,3.70
2023-01-17T03:30:33.719Z,3.67
2023-01-17T03:33:38.035Z,3.53
2023-01-17T03:36:40.801Z,3.40
2023-01-17T03:39:43.634Z,3.72
2023-01-17T03:42:46.653Z,3.50
2023-01-17T03:45:51.992Z,4.15
2023-01-17T03:48:56.369Z,3.45
2023-01-17T03:51:59.252Z,3.35
2023-01-17T03:55:02.623Z,3.60
2023-01-17T03:58:05.922Z,3.45
2023-01-17T04:01:08.816Z,3.38
2023-01-17T04:04:13.053Z,3.42
2023-01-17T04:07:15.845Z,3.30
2023-01-17T04:10:18.765Z,3.20
2023-01-17T04:13:21.588Z,3.58
2023-01-17T04:16:29.275Z,3.35
2023-01-17T04:19:36.809Z,3.22
2023-01-17T04:22:39.679Z,3.28
2023-01-17T04:25:42.594Z,3.17
2023-01-17T04:28:45.625Z,3.25
2023-01-17T04:31:48.778Z,3.08
2023-01-17T04:34:53.039Z,3.38
2023-01-17T04:37:55.871Z,3.22
2023-01-17T04:40:58.684Z,3.38
2023-01-17T04:44:01.968Z,3.10
2023-01-17T04:47:04.857Z,3.35
2023-01-17T04:50:10.870Z,2.90
2023-01-17T04:53:13.769Z,3.58
2023-01-17T04:56:16.663Z,3.10
2023-01-17T04:59:19.611Z,2.92
2023-01-17T05:02:22.618Z,3.60
2023-01-17T05:05:27.242Z,2.92
2023-01-17T05:08:30.174Z,3.17
2023-01-17T05:11:32.982Z,2.90
2023-01-17T05:14:35.918Z,3.05
2023-01-17T05:17:38.771Z,2.72
2023-01-17T05:20:43.332Z,3.03
2023-01-17T05:23:46.130Z,3.08
2023-01-17T05:26:54.568Z,2.80
2023-01-17T05:29:57.477Z,3.00
2023-01-17T05:33:00.715Z,3.25
2023-01-17T05:36:05.202Z,3.20
2023-01-17T05:39:08.091Z,2.78
2023-01-17T05:42:10.980Z,2.60
2023-01-17T05:45:16.799Z,3.22
2023-01-17T05:48:19.646Z,3.05
2023-01-17T05:51:24.041Z,3.05
2023-01-17T05:54:26.853Z,2.58
2023-01-17T05:57:29.664Z,2.80
2023-01-17T06:00:33.636Z,2.85
2023-01-17T06:03:36.466Z,3.03
2023-01-17T06:06:40.766Z,2.70
2023-01-17T06:09:43.635Z,2.85
2023-01-17T06:12:47.666Z,2.67
2023-01-17T06:15:50.530Z,2.70
2023-01-17T06:18:53.387Z,2.72
2023-01-17T06:21:57.583Z,2.67
2023-01-17T06:25:00.681Z,2.58
2023-01-17T06:28:03.672Z,2.63
2023-01-17T06:31:08.157Z,2.50
2023-01-17T06:34:11.161Z,2.35
2023-01-17T06:37:15.342Z,2.40
2023-01-17T06:40:18.851Z,2.65
2023-01-17T06:43:21.679Z,2.80
2023-01-17T06:46:25.805Z,2.45
2023-01-17T06:49:28.856Z,2.70
2023-01-17T06:52:33.059Z,2.63
2023-01-17T06:55:40.153Z,2.65
2023-01-17T06:58:43.106Z,2.70
2023-01-17T07:01:46.115Z,2.85
2023-01-17T07:04:49.038Z,2.42
2023-01-17T07:07:53.642Z,2.40
2023-01-17T07:11:00.305Z,2.40
2023-01-17T07:14:03.220Z,2.22
2023-01-17T07:17:06.159Z,2.30
2023-01-17T07:20:10.556Z,2.22
2023-01-17T07:23:14.778Z,2.55
2023-01-17T07:26:17.731Z,2.40
2023-01-17T07:29:20.732Z,2.33
2023-01-17T07:32:23.586Z,2.75
2023-01-17T07:35:27.182Z,2.30
2023-01-17T07:38:31.448Z,2.75
2023-01-17T07:41:41.068Z,2.80
2023-01-17T07:44:45.123Z,2.70
2023-01-17T07:47:50.072Z,2.83
2023-01-17T07:50:54.714Z,2.63
2023-01-17T07:53:59.443Z,2.50
2023-01-17T07:57:02.493Z,2.97
2023-01-17T08:00:06.507Z,2.70
2023-01-17T08:03:17.057Z,2.75
2023-01-17T08:06:22.628Z,2.65
2023-01-17T08:09:26.988Z,2.20
2023-01-17T08:12:30.371Z,2.58
2023-01-17T08:15:33.184Z,2.42
2023-01-17T08:18:36.007Z,2.80
2023-01-17T08:21:38.979Z,2.60
2023-01-17T08:24:44.592Z,2.60
2023-01-17T08:27:47.570Z,3.10
2023-01-17T08:30:50.414Z,2.78
2023-01-17T08:33:53.352Z,2.50
2023-01-17T08:36:56.488Z,2.38
2023-01-17T08:40:00.778Z,2.15
2023-01-17T08:43:04.013Z,2.20
2023-01-17T08:46:06.984Z,2.50
2023-01-17T08:49:12.101Z,2.60
2023-01-17T08:52:15.479Z,2.22
2023-01-17T08:55:20.957Z,2.10
2023-01-17T08:58:24.028Z,2.30
2023-01-17T09:01:27.157Z,2.30
2023-01-17T09:04:30.297Z,2.10
2023-01-17T09:07:33.495Z,2.33
2023-01-17T09:10:37.848Z,2.40
2023-01-17T09:13:41.300Z,2.13
2023-01-17T09:16:44.205Z,2.03
2023-01-17T09:19:48.658Z,2.35
2023-01-17T09:22:52.280Z,2.30
2023-01-17T09:25:58.229Z,2.45
2023-01-17T09:29:01.113Z,2.55
2023-01-17T09:32:04.196Z,2.50
2023-01-17T09:35:08.696Z,2.58
2023-01-17T09:38:11.693Z,2.28
2023-01-17T09:41:24.159Z,2.13
2023-01-17T09:44:31.108Z,2.47
2023-01-17T09:47:39.235Z,1.90
2023-01-17T09:50:50.967Z,2.40
2023-01-17T09:53:54.950Z,2.60
2023-01-17T09:57:03.934Z,2.40
2023-01-17T10:00:16.213Z,2.60
2023-01-17T10:03:29.722Z,2.78
2023-01-17T10:06:48.057Z,2.33
2023-01-17T10:10:07.517Z,2.55
2023-01-17T10:13:27.893Z,2.45
2023-01-17T10:16:42.486Z,2.53
2023-01-17T10:20:00.745Z,2.25
2023-01-17T10:23:25.178Z,2.67
2023-01-17T10:26:28.652Z,2.50
2023-01-17T10:29:36.485Z,2.92
2023-01-17T10:32:47.481Z,2.45
2023-01-17T10:35:57.825Z,2.97
2023-01-17T10:39:05.485Z,2.60
2023-01-17T10:42:15.776Z,2.85
2023-01-17T10:45:25.676Z,3.03
2023-01-17T10:48:39.119Z,2.90
2023-01-17T10:52:01.128Z,2.47
2023-01-17T10:55:16.954Z,2.70
2023-01-17T10:58:20.078Z,2.80
2023-01-17T11:01:26.402Z,2.75
2023-01-17T11:04:36.520Z,2.90
2023-01-17T11:07:40.192Z,2.85
2023-01-17T11:10:46.458Z,3.42
2023-01-17T11:13:51.008Z,2.50
2023-01-17T11:17:03.605Z,2.58
2023-01-17T11:20:19.958Z,2.70
2023-01-17T11:23:27.547Z,3.08
2023-01-17T11:26:33.014Z,3.05
2023-01-17T11:29:38.740Z,2.92
2023-01-17T11:32:52.722Z,2.95
2023-01-17T11:35:55.610Z,3.22
2023-01-17T11:39:02.771Z,2.97
2023-01-17T11:42:27.542Z,2.92
2023-01-17T11:45:33.382Z,2.80
2023-01-17T11:48:40.276Z,2.60
2023-01-17T11:51:43.806Z,2.83
2023-01-17T11:54:49.037Z,3.10
2023-01-17T11:57:52.186Z,2.85
2023-01-17T12:01:02.114Z,2.83
2023-01-17T12:04:29.765Z,3.30
2023-01-17T12:07:41.240Z,3.47
2023-01-17T12:10:54.479Z,2.92
2023-01-17T12:14:05.389Z,3.38
2023-01-17T12:17:20.144Z,3.50
2023-01-17T12:20:32.864Z,4.05
2023-01-17T12:23:51.633Z,3.90
2023-01-17T12:27:06.741Z,3.95
2023-01-17T12:30:23.925Z,3.97
2023-01-17T12:33:37.548Z,4.00
2023-01-17T12:36:49.672Z,3.97
2023-01-17T12:39:59.543Z,3.97
2023-01-17T12:43:08.053Z,4.47
2023-01-17T12:46:20.788Z,4.15
2023-01-17T12:49:32.727Z,4.15
2023-01-17T12:52:49.852Z,4.13
2023-01-17T12:55:58.409Z,4.28
2023-01-17T12:59:09.599Z,4.18
2023-01-17T13:02:21.967Z,4.07
2023-01-17T13:05:28.381Z,4.60
2023-01-17T13:08:41.295Z,4.13
2023-01-17T13:11:49.826Z,3.90
2023-01-17T13:14:52.827Z,4.00
2023-01-17T13:18:01.664Z,4.22
2023-01-17T13:21:29.533Z,5.20
2023-01-17T13:24:45.368Z,5.25
2023-01-17T13:28:16.083Z,4.95
2023-01-17T13:31:45.457Z,4.95
2023-01-17T13:35:06.501Z,5.07
2023-01-17T13:38:30.442Z,4.80
2023-01-17T13:41:46.435Z,5.28
2023-01-17T13:44:50.498Z,4.93
2023-01-17T13:47:54.079Z,5.25
2023-01-17T13:50:57.716Z,5.57
2023-01-17T13:54:00.602Z,5.88
2023-01-17T13:57:46.757Z,6.18
2023-01-17T14:00:51.727Z,6.07
2023-01-17T14:04:06.969Z,5.97
2023-01-17T14:07:21.042Z,6.07
2023-01-17T14:10:34.285Z,6.97
2023-01-17T14:13:40.828Z,6.38
2023-01-17T14:16:46.214Z,6.28
2023-01-17T14:19:51.933Z,6.97
2023-01-17T14:22:58.204Z,5.85
2023-01-17T14:26:15.222Z,6.57
2023-01-17T14:29:50.863Z,6.63
2023-01-17T14:33:13.747Z,6.55
2023-01-17T14:36:25.731Z,6.72
2023-01-17T14:39:28.635Z,6.70
2023-01-17T14:42:33.730Z,6.78
2023-01-17T14:45:39.295Z,6.68
2023-01-17T14:48:42.633Z,6.90
2023-01-17T14:51:58.655Z,6.72
2023-01-17T14:55:14.692Z,6.85
2023-01-17T14:58:18.076Z,6.40
2023-01-17T15:01:28.892Z,5.80
2023-01-17T15:04:38.238Z,6.57
2023-01-17T15:07:41.724Z,6.20
2023-01-17T15:10:50.134Z,6.65
2023-01-17T15:13:57.311Z,6.70
2023-01-17T15:17:12.735Z,7.13
2023-01-17T15:20:19.182Z,6.63
2023-01-17T15:23:23.914Z,6.93
2023-01-17T15:26:28.936Z,7.57
2023-01-17T15:29:34.477Z,6.88
2023-01-17T15:32:39.537Z,7.97
2023-01-17T15:35:43.968Z,7.53
2023-01-17T15:38:53.395Z,7.25
2023-01-17T15:41:58.752Z,8.60
2023-01-17T15:45:04.533Z,7.65
2023-01-17T15:48:41.527Z,8.05
2023-01-17T15:51:49.501Z,6.72
2023-01-17T15:54:54.598Z,9.40
2023-01-17T15:57:58.050Z,10.15
2023-01-17T16:01:01.524Z,10.20
2023-01-17T16:04:25.453Z,9.00
2023-01-17T16:07:35.008Z,8.43
2023-01-17T16:10:39.502Z,8.13
2023-01-17T16:13:47.183Z,8.40
2023-01-17T16:16:53.936Z,8.43
2023-01-17T16:19:58.502Z,7.93
2023-01-17T16:23:02.906Z,7.57
2023-01-17T16:26:06.135Z,7.90
2023-01-17T16:29:10.152Z,8.35
2023-01-17T16:32:14.837Z,8.20
2023-01-17T16:35:21.127Z,8.23
2023-01-17T16:38:24.050Z,8.02
2023-01-17T16:41:26.894Z,7.78
2023-01-17T16:44:30.379Z,7.88
2023-01-17T16:47:33.200Z,7.85
2023-01-17T16:50:42.396Z,8.27
2023-01-17T16:53:45.349Z,8.07
2023-01-17T16:56:48.189Z,7.82
2023-01-17T16:59:52.357Z,8.75
2023-01-17T17:02:55.263Z,8.30
2023-01-17T17:06:01.567Z,8.75
2023-01-17T17:09:04.724Z,8.70
2023-01-17T17:12:08.041Z,9.43
2023-01-17T17:15:12.027Z,9.60
2023-01-17T17:18:15.927Z,10.10
2023-01-17T17:21:20.172Z,9.57
2023-01-17T17:24:23.002Z,9.73
2023-01-17T17:27:27.874Z,10.20
2023-01-17T17:30:31.223Z,10.10
2023-01-17T17:33:35.312Z,10.85
2023-01-17T17:36:39.950Z,10.32
2023-01-17T17:39:44.471Z,10.63
2023-01-17T17:42:47.281Z,12.18
2023-01-17T17:45:50.067Z,11.00
2023-01-17T17:48:52.975Z,11.20
2023-01-17T17:52:05.033Z,10.93
2023-01-17T17:55:08.559Z,10.88
2023-01-17T17:58:11.330Z,11.45
2023-01-17T18:01:14.222Z,11.35
2023-01-17T18:04:17.386Z,11.00
2023-01-17T18:07:21.623Z,10.95
2023-01-17T18:10:24.450Z,12.48
2023-01-17T18:13:27.771Z,12.75
2023-01-17T18:16:33.181Z,11.32
2023-01-17T18:19:36.022Z,11.13
2023-01-17T18:22:40.806Z,11.52
2023-01-17T18:25:44.631Z,11.00
2023-01-17T18:28:47.857Z,10.80
2023-01-17T18:31:52.138Z,11.55
2023-01-17T18:34:54.939Z,11.95
2023-01-17T18:37:59.961Z,11.43
2023-01-17T18:41:03.424Z,12.23
2023-01-17T18:44:07.256Z,13.95
2023-01-17T18:47:10.908Z,11.82
2023-01-17T18:50:13.949Z,12.23
2023-01-17T18:53:18.363Z,13.80
2023-01-17T18:56:22.760Z,13.70
2023-01-17T18:59:25.873Z,12.98
2023-01-17T19:02:28.713Z,13.55
2023-01-17T19:05:31.584Z,13.48
2023-01-17T19:08:36.176Z,13.13
2023-01-17T19:11:39.166Z,13.88
2023-01-17T19:14:42.095Z,14.32
2023-01-17T19:17:44.896Z,13.75
2023-01-17T19:20:47.829Z,13.23
2023-01-17T19:23:52.394Z,14.32
2023-01-17T19:26:55.366Z,13.95
2023-01-17T19:29:58.205Z,14.88
2023-01-17T19:33:01.441Z,14.05
2023-01-17T19:36:06.775Z,13.38
2023-01-17T19:39:11.062Z,14.38
2023-01-17T19:42:15.641Z,13.52
2023-01-17T19:45:18.821Z,14.18
2023-01-17T19:48:22.547Z,13.65
2023-01-17T19:51:26.691Z,13.43
2023-01-17T19:54:30.907Z,13.27
2023-01-17T19:57:34.849Z,12.90
2023-01-17T20:00:46.132Z,13.38
2023-01-17T20:03:49.661Z,12.85
2023-01-17T20:06:52.605Z,12.63
2023-01-17T20:09:57.586Z,13.30
2023-01-17T20:13:00.521Z,12.45
2023-01-17T20:16:05.024Z,13.15
2023-01-17T20:19:08.191Z,13.10
2023-01-17T20:22:11.155Z,12.52
2023-01-17T20:25:15.581Z,12.77
2023-01-17T20:28:18.466Z,12.48
2023-01-17T20:31:23.375Z,11.75
2023-01-17T20:34:26.626Z,11.85
2023-01-17T20:37:29.555Z,12.95
2023-01-17T20:40:33.822Z,12.38
2023-01-17T20:43:36.752Z,12.48
2023-01-17T20:46:41.682Z,11.52
2023-01-17T20:49:44.596Z,11.30
2023-01-17T20:52:48.232Z,11.23
2023-01-17T20:55:58.158Z,11.60
2023-01-17T20:59:03.650Z,11.45
2023-01-17T21:02:09.887Z,11.02
2023-01-17T21:05:13.244Z,10.85
2023-01-17T21:08:18.458Z,11.15
2023-01-17T21:11:25.225Z,11.30
2023-01-17T21:14:28.398Z,10.93
2023-01-17T21:17:31.546Z,10.70
2023-01-17T21:20:36.419Z,10.63
2023-01-17T21:23:41.003Z,10.85
2023-01-17T21:26:45.827Z,11.25
2023-01-17T21:29:48.715Z,10.30
2023-01-17T21:32:51.609Z,9.95
2023-01-17T21:35:54.639Z,10.35
2023-01-17T21:38:59.147Z,10.55
2023-01-17T21:42:03.433Z,9.88
2023-01-17T21:45:07.186Z,9.75
2023-01-17T21:48:13.080Z,9.75
2023-01-17T21:51:16.449Z,10.27
2023-01-17T21:54:19.436Z,10.43
2023-01-17T21:57:41.490Z,9.32
2023-01-17T22:00:44.449Z,9.80
2023-01-17T22:03:50.816Z,9.55
2023-01-17T22:06:53.736Z,9.27
2023-01-17T22:09:56.953Z,9.80
2023-01-17T22:13:01.123Z,9.30
2023-01-17T22:16:05.878Z,9.60
2023-01-17T22:19:08.663Z,9.55
2023-01-17T22:22:11.449Z,9.10
2023-01-17T22:25:14.602Z,9.70
2023-01-17T22:28:18.803Z,8.68
2023-01-17T22:31:23.387Z,9.73
2023-01-17T22:34:26.387Z,9.93
2023-01-17T22:37:29.202Z,8.55
2023-01-17T22:40:32.749Z,9.02
2023-01-17T22:43:42.359Z,8.70
2023-01-17T22:46:45.221Z,9.50
2023-01-17T22:49:48.134Z,8.63
2023-01-17T22:52:50.975Z,9.05
2023-01-17T22:56:01.353Z,8.93
2023-01-17T22:59:11.275Z,8.40
2023-01-17T23:02:15.756Z,8.55
2023-01-17T23:05:20.216Z,8.38
2023-01-17T23:08:23.119Z,8.32
2023-01-17T23:11:42.444Z,7.88
2023-01-17T23:15:04.036Z,8.05
2023-01-17T23:18:24.370Z,7.32
2023-01-17T23:21:47.190Z,7.93
2023-01-17T23:24:52.763Z,7.13
2023-01-17T23:28:20.534Z,7.75
2023-01-17T23:31:25.224Z,7.53
2023-01-17T23:34:28.035Z,7.47
2023-01-17T23:37:45.390Z,7.28
2023-01-17T23:41:08.596Z,7.25
2023-01-17T23:44:10.437Z,6.85
2023-01-17T23:47:15.333Z,6.97
2023-01-17T23:50:19.077Z,7.78
2023-01-17T23:53:23.005Z,6.78
2023-01-17T23:56:25.833Z,7.10
2023-01-17T23:59:29.176Z,6.85
